Time;durP1;ratioP1;P1;durP2;ratioP2;P2;SDS_P1;SDS_P2;PMS_P1;PMS_P2;Temp;Humidity;BMP_temperature;BMP_pressure;BME280_temperature;BME280_humidity;BME280_pressure;Samples;Min_cycle;Max_cycle;Signal;HPM_P1;HPM_P2
2021/05/22 00:01:05;;;;;;;23.55;12.75;;;;;;;6.90;73.58;94402.83;1762029;80;21008;-48
2021/05/22 00:03:32;;;;;;;14.13;8.85;;;;;;;6.83;73.82;94398.15;1773576;80;21555;-48
2021/05/22 00:05:58;;;;;;;20.48;9.98;;;;;;;6.75;73.95;94400.91;1765073;80;21016;-48
2021/05/22 00:08:25;;;;;;;16.97;8.68;;;;;;;6.73;74.07;94389.03;1759977;80;21496;-50
2021/05/22 00:10:52;;;;;;;15.40;9.70;;;;;;;6.73;73.94;94386.91;1752061;80;21094;-48
2021/05/22 00:13:19;;;;;;;17.17;10.38;;;;;;;6.69;74.00;94385.63;1764919;80;21019;-49
2021/05/22 00:15:47;;;;;;;16.95;10.35;;;;;;;6.65;74.40;94390.43;1766617;80;21045;-49
2021/05/22 00:18:14;;;;;;;18.50;9.98;;;;;;;6.66;74.57;94386.50;1761198;80;21035;-50
2021/05/22 00:20:40;;;;;;;19.05;9.73;;;;;;;6.62;74.87;94387.78;1754506;80;20955;-49
2021/05/22 00:23:07;;;;;;;14.33;10.00;;;;;;;6.65;74.89;94393.16;1750875;80;21595;-49
2021/05/22 00:25:34;;;;;;;14.40;9.33;;;;;;;6.66;74.97;94391.21;1762192;80;21020;-49
2021/05/22 00:28:00;;;;;;;12.55;8.43;;;;;;;6.71;74.94;94383.84;1754521;80;21035;-49
2021/05/22 00:30:27;;;;;;;15.60;9.93;;;;;;;6.76;74.78;94376.48;1751435;80;20987;-49
2021/05/22 00:32:54;;;;;;;17.32;9.78;;;;;;;6.77;74.79;94382.90;1752834;80;21511;-49
2021/05/22 00:35:20;;;;;;;15.55;9.33;;;;;;;6.82;74.84;94391.93;1753972;80;21144;-50
2021/05/22 00:37:47;;;;;;;12.68;8.35;;;;;;;6.90;74.56;94388.41;1767432;80;21083;-49
2021/05/22 00:40:14;;;;;;;16.40;7.75;;;;;;;6.93;74.41;94382.07;1749979;80;21051;-49
2021/05/22 00:42:43;;;;;;;16.42;7.53;;;;;;;6.94;74.24;94370.72;1753375;80;21657;-49
2021/05/22 00:45:17;;;;;;;15.23;8.05;;;;;;;6.96;74.17;94363.43;1765216;80;21099;-49
2021/05/22 00:47:49;;;;;;;15.93;9.15;;;;;;;6.97;74.29;94363.59;1749393;80;21162;-49
2021/05/22 00:50:21;;;;;;;12.95;9.88;;;;;;;6.99;74.25;94361.19;1779532;80;21543;-49
2021/05/22 00:52:48;;;;;;;19.12;8.98;;;;;;;6.99;74.37;94369.39;1751707;80;20972;-50
2021/05/22 00:55:15;;;;;;;14.83;8.40;;;;;;;6.99;74.46;94366.66;1766095;80;20988;-49
2021/05/22 00:57:43;;;;;;;11.10;7.75;;;;;;;6.98;74.37;94373.33;1779358;80;21072;-48
2021/05/22 01:00:17;;;;;;;11.55;7.62;;;;;;;6.95;74.26;94374.20;1765048;80;21087;-49
2021/05/22 01:02:44;;;;;;;19.05;9.35;;;;;;;6.97;74.28;94366.33;1764537;80;21182;-50
2021/05/22 01:05:11;;;;;;;17.75;8.03;;;;;;;6.98;74.17;94380.16;1758351;80;21647;-49
2021/05/22 01:07:37;;;;;;;14.73;8.60;;;;;;;6.98;74.29;94376.06;1759412;80;21024;-49
2021/05/22 01:10:07;;;;;;;15.15;9.33;;;;;;;6.95;74.71;94382.41;1762995;80;21015;-49
2021/05/22 01:12:36;;;;;;;21.82;11.28;;;;;;;6.89;74.83;94380.04;1758968;80;21099;-50
2021/05/22 01:15:17;;;;;;;33.63;13.30;;;;;;;6.79;74.85;94390.65;1759117;80;20980;-49
2021/05/22 01:17:48;;;;;;;28.73;13.40;;;;;;;6.70;75.00;94392.63;1765917;80;20980;-48
2021/05/22 01:20:33;;;;;;;30.92;12.30;;;;;;;6.64;75.23;94395.73;1762581;80;21043;-49
2021/05/22 01:23:04;;;;;;;23.55;12.28;;;;;;;6.61;75.51;94385.66;1766730;80;21166;-49
2021/05/22 01:25:38;;;;;;;32.98;14.45;;;;;;;6.55;75.82;94390.09;1771465;80;21031;-49
2021/05/22 01:28:07;;;;;;;30.92;14.30;;;;;;;6.50;75.98;94385.77;1765500;80;20984;-49
2021/05/22 01:30:34;;;;;;;32.85;13.15;;;;;;;6.55;76.16;94382.52;1767272;80;21029;-49
2021/05/22 01:33:02;;;;;;;37.88;14.87;;;;;;;6.60;75.91;94367.73;1764067;80;21109;-49
2021/05/22 01:35:28;;;;;;;29.95;13.30;;;;;;;6.65;75.81;94374.62;1771831;80;21627;-49
2021/05/22 01:37:55;;;;;;;29.98;12.15;;;;;;;6.73;75.92;94363.68;1769182;80;21841;-49
2021/05/22 01:40:22;;;;;;;24.98;12.90;;;;;;;6.84;75.85;94357.31;1754199;80;21089;-50
2021/05/22 01:42:48;;;;;;;22.70;12.78;;;;;;;6.94;75.58;94363.09;1756206;80;20973;-50
2021/05/22 01:45:22;;;;;;;27.25;12.00;;;;;;;6.95;75.35;94360.53;1758893;81;20969;-49
2021/05/22 01:47:48;;;;;;;23.30;11.50;;;;;;;6.96;75.33;94358.73;1755351;80;21016;-49
2021/05/22 01:50:18;;;;;;;25.02;12.03;;;;;;;6.96;75.34;94364.21;1758762;80;21643;-49
2021/05/22 01:52:51;;;;;;;24.27;11.20;;;;;;;6.95;75.44;94368.73;1762445;80;21063;-49
2021/05/22 01:55:18;;;;;;;24.05;12.58;;;;;;;6.94;75.41;94371.30;1771876;80;21499;-49
2021/05/22 01:57:45;;;;;;;22.77;11.12;;;;;;;6.92;75.31;94367.62;1714783;80;21531;-50
2021/05/22 02:00:14;;;;;;;38.48;12.68;;;;;;;6.95;75.36;94372.25;1771034;80;21064;-49
2021/05/22 02:02:55;;;;;;;28.60;12.05;;;;;;;6.96;75.23;94364.80;1762295;80;21526;-49
2021/05/22 02:05:22;;;;;;;22.52;11.33;;;;;;;6.96;75.30;94360.11;1765854;80;21055;-50
2021/05/22 02:07:49;;;;;;;19.12;11.35;;;;;;;6.93;75.37;94366.45;1765058;80;21491;-49
2021/05/22 02:10:16;;;;;;;16.40;10.35;;;;;;;6.87;75.49;94353.13;1775525;80;20996;-49
2021/05/22 02:12:44;;;;;;;24.32;11.00;;;;;;;6.86;75.49;94360.41;1766273;80;20984;-49
2021/05/22 02:15:14;;;;;;;18.20;10.58;;;;;;;6.88;75.37;94356.64;1755041;80;21094;-49
2021/05/22 02:17:41;;;;;;;26.37;12.03;;;;;;;6.85;75.50;94361.61;1766709;80;21098;-48
2021/05/22 02:20:12;;;;;;;16.48;10.43;;;;;;;6.83;75.69;94365.34;1765464;80;20984;-49
2021/05/22 02:22:42;;;;;;;30.30;11.78;;;;;;;6.86;75.78;94363.14;1746171;80;21094;-49
2021/05/22 02:25:11;;;;;;;21.17;11.85;;;;;;;6.84;75.75;94362.78;1769767;80;21479;-48
2021/05/22 02:27:37;;;;;;;29.05;13.38;;;;;;;6.79;75.96;94363.31;1753250;80;21073;-48
2021/05/22 02:30:08;;;;;;;23.57;12.53;;;;;;;6.72;76.26;94370.34;1751795;80;21089;-50
2021/05/22 02:32:41;;;;;;;21.85;11.38;;;;;;;6.72;76.41;94374.45;1756932;80;21006;-50
2021/05/22 02:35:10;;;;;;;22.00;10.93;;;;;;;6.76;76.57;94369.64;1761573;80;21487;-49
2021/05/22 02:37:37;;;;;;;26.05;11.95;;;;;;;6.80;76.42;94371.09;1759246;80;21044;-49
2021/05/22 02:40:13;;;;;;;24.82;12.28;;;;;;;6.77;76.39;94362.98;1748272;80;21235;-49
2021/05/22 02:42:39;;;;;;;25.20;12.43;;;;;;;6.72;76.44;94372.47;1760684;80;21080;-49
2021/05/22 02:45:08;;;;;;;23.60;11.63;;;;;;;6.66;76.59;94363.88;1759022;80;21653;-49
2021/05/22 02:47:35;;;;;;;27.42;12.10;;;;;;;6.68;76.73;94373.16;1752402;80;21000;-49
2021/05/22 02:50:06;;;;;;;16.48;9.83;;;;;;;6.73;76.47;94375.98;1754043;80;21048;-49
2021/05/22 02:52:33;;;;;;;15.70;9.35;;;;;;;6.78;76.60;94369.98;1759145;80;21074;-49
2021/05/22 02:55:00;;;;;;;17.45;10.10;;;;;;;6.76;76.30;94380.00;1734981;81;21105;-49
2021/05/22 02:57:27;;;;;;;25.62;11.60;;;;;;;6.69;76.42;94382.15;1732211;81;21017;-49
2021/05/22 02:59:53;;;;;;;27.13;12.23;;;;;;;6.66;76.34;94383.77;1775829;80;21091;-49
2021/05/22 03:02:20;;;;;;;24.55;12.63;;;;;;;6.62;76.42;94375.48;1756891;80;21556;-49
2021/05/22 03:04:47;;;;;;;13.45;9.58;;;;;;;6.65;76.60;94367.78;1745013;81;21125;-49
2021/05/22 03:07:14;;;;;;;19.55;10.72;;;;;;;6.74;76.47;94365.97;1730028;81;21007;-49
2021/05/22 03:09:42;;;;;;;18.10;9.28;;;;;;;6.81;76.56;94380.05;1762298;80;21007;-49
2021/05/22 03:12:08;;;;;;;17.37;9.50;;;;;;;6.92;76.36;94386.76;1757545;80;21512;-48
2021/05/22 03:14:35;;;;;;;15.15;9.98;;;;;;;7.01;76.19;94382.81;1778429;80;20992;-51
2021/05/22 03:17:01;;;;;;;19.67;9.60;;;;;;;7.10;76.05;94385.67;1767785;80;21064;-50
2021/05/22 03:19:28;;;;;;;21.10;9.88;;;;;;;7.16;75.75;94380.61;1769727;80;21496;-50
2021/05/22 03:21:55;;;;;;;16.57;9.48;;;;;;;7.16;75.55;94374.38;1759199;80;21079;-49
2021/05/22 03:24:21;;;;;;;14.43;9.03;;;;;;;7.18;75.62;94371.36;1758227;80;21646;-50
2021/05/22 03:26:49;;;;;;;21.02;9.70;;;;;;;7.23;75.52;94383.16;1762811;80;20977;-50
2021/05/22 03:29:16;;;;;;;16.45;10.30;;;;;;;7.26;75.52;94380.92;1751751;80;21087;-49
2021/05/22 03:31:42;;;;;;;13.93;9.38;;;;;;;7.39;75.40;94382.30;1749395;80;21023;-50
2021/05/22 03:34:09;;;;;;;18.30;10.93;;;;;;;7.53;74.85;94378.55;1759841;80;21487;-49
2021/05/22 03:36:36;;;;;;;20.55;10.00;;;;;;;7.60;74.56;94379.72;1765725;80;21114;-50
2021/05/22 03:39:04;;;;;;;24.65;10.70;;;;;;;7.61;74.29;94368.94;1763383;80;21670;-49
2021/05/22 03:41:32;;;;;;;19.23;9.85;;;;;;;7.62;74.35;94379.27;1760090;80;21668;-50
2021/05/22 03:43:58;;;;;;;18.37;9.00;;;;;;;7.68;74.16;94378.29;1748352;80;21186;-51
2021/05/22 03:46:27;;;;;;;14.83;8.65;;;;;;;7.73;74.05;94377.73;1769361;80;21390;-52
2021/05/22 03:48:53;;;;;;;16.42;9.18;;;;;;;7.79;73.99;94383.44;1771885;80;21063;-50
2021/05/22 03:51:20;;;;;;;15.98;9.33;;;;;;;7.83;73.91;94379.39;1757969;80;21083;-49
2021/05/22 03:53:49;;;;;;;11.70;9.58;;;;;;;7.83;73.84;94376.66;1763705;80;21033;-50
2021/05/22 03:56:15;;;;;;;16.42;8.88;;;;;;;7.90;73.91;94384.64;1761649;80;21492;-50
2021/05/22 03:58:42;;;;;;;12.93;9.58;;;;;;;8.02;73.59;94392.69;1778467;80;21047;-49
2021/05/22 04:01:08;;;;;;;18.73;11.12;;;;;;;8.07;73.25;94386.06;1751017;80;21575;-49
2021/05/22 04:03:35;;;;;;;13.15;8.65;;;;;;;8.13;73.13;94384.33;1746848;80;21075;-50
2021/05/22 04:06:01;;;;;;;12.88;8.70;;;;;;;8.24;72.85;94390.86;1763165;80;21028;-50
2021/05/22 04:08:28;;;;;;;19.15;8.05;;;;;;;8.30;72.38;94393.98;1758842;80;20996;-51
2021/05/22 04:10:55;;;;;;;12.07;7.33;;;;;;;8.40;71.88;94395.59;1779257;80;20971;-49
2021/05/22 04:13:21;;;;;;;10.78;8.48;;;;;;;8.45;71.66;94396.39;1779324;80;21055;-49
2021/05/22 04:15:48;;;;;;;11.50;8.35;;;;;;;8.54;71.62;94396.50;1765362;80;21016;-50
2021/05/22 04:18:15;;;;;;;10.03;7.97;;;;;;;8.69;71.40;94401.68;1756426;80;21154;-51
2021/05/22 04:20:42;;;;;;;11.93;7.67;;;;;;;8.88;71.37;94399.27;1760338;80;21063;-50
2021/05/22 04:23:10;;;;;;;17.10;7.78;;;;;;;9.04;70.72;94392.23;1770583;80;20970;-50
2021/05/22 04:25:36;;;;;;;11.05;6.30;;;;;;;9.19;70.01;94392.65;1754955;80;21575;-50
2021/05/22 04:28:04;;;;;;;11.28;7.08;;;;;;;9.30;69.17;94390.89;1776011;80;21028;-50
2021/05/22 04:30:30;;;;;;;9.58;6.70;;;;;;;9.39;68.60;94396.43;1771216;80;21107;-50
2021/05/22 04:32:58;;;;;;;9.05;6.50;;;;;;;9.48;68.14;94395.12;1753838;80;20981;-50
2021/05/22 04:35:24;;;;;;;9.80;6.58;;;;;;;9.51;67.94;94398.34;1759249;80;21157;-49
2021/05/22 04:37:52;;;;;;;9.05;6.72;;;;;;;9.56;67.79;94400.51;1759894;80;21582;-50
2021/05/22 04:40:18;;;;;;;10.43;6.80;;;;;;;9.65;67.90;94402.70;1749007;80;21051;-50
2021/05/22 04:42:45;;;;;;;11.65;6.30;;;;;;;9.76;67.79;94399.58;1765985;80;21119;-51
2021/05/22 04:45:13;;;;;;;15.80;6.87;;;;;;;9.83;67.30;94402.80;1771864;80;21594;-50
2021/05/22 04:47:41;;;;;;;10.38;6.90;;;;;;;9.85;67.00;94408.64;1757793;80;21035;-52
2021/05/22 04:50:09;;;;;;;8.58;6.22;;;;;;;9.91;66.82;94406.83;1752090;80;21020;-51
2021/05/22 04:52:37;;;;;;;13.10;6.70;;;;;;;9.98;66.53;94405.80;1761966;80;20975;-50
2021/05/22 04:55:05;;;;;;;9.95;6.37;;;;;;;10.07;66.50;94405.85;1755442;80;21080;-51
2021/05/22 04:57:32;;;;;;;15.70;6.95;;;;;;;10.16;66.03;94411.40;1761764;80;20980;-52
2021/05/22 04:59:59;;;;;;;9.33;6.65;;;;;;;10.25;66.05;94415.55;1758036;80;21083;-49
2021/05/22 05:02:25;;;;;;;13.00;6.17;;;;;;;10.33;65.78;94416.81;1766104;80;21104;-50
2021/05/22 05:04:52;;;;;;;10.23;6.62;;;;;;;10.41;65.73;94418.05;1761860;80;20997;-53
2021/05/22 05:07:19;;;;;;;10.40;6.17;;;;;;;10.56;65.72;94421.77;1760375;80;21061;-50
2021/05/22 05:09:46;;;;;;;9.53;6.30;;;;;;;10.69;65.65;94416.91;1768997;81;21012;-51
2021/05/22 05:12:14;;;;;;;11.65;5.83;;;;;;;10.80;65.12;94407.75;1764217;80;21570;-50
2021/05/22 05:14:41;;;;;;;10.60;5.92;;;;;;;10.93;64.46;94408.39;1760755;80;21052;-52
2021/05/22 05:17:08;;;;;;;10.82;6.42;;;;;;;11.02;63.84;94408.38;1756358;80;20987;-49
2021/05/22 05:19:34;;;;;;;8.83;6.42;;;;;;;11.06;63.34;94399.98;1778595;80;22166;-50
2021/05/22 05:22:02;;;;;;;9.80;6.35;;;;;;;11.07;63.22;94400.13;1766262;80;21504;-50
2021/05/22 05:24:29;;;;;;;9.55;6.08;;;;;;;11.10;63.03;94401.36;1768860;80;20996;-50
2021/05/22 05:26:56;;;;;;;8.35;6.03;;;;;;;11.15;62.77;94402.75;1756075;80;21012;-50
2021/05/22 05:29:23;;;;;;;12.78;6.22;;;;;;;11.23;62.57;94407.50;1760469;80;21102;-51
2021/05/22 05:31:50;;;;;;;18.37;6.40;;;;;;;11.32;62.06;94407.48;1758150;80;21807;-53
2021/05/22 05:34:16;;;;;;;14.35;6.08;;;;;;;11.38;62.30;94411.14;1749451;80;21542;-51
2021/05/22 05:36:43;;;;;;;13.32;6.78;;;;;;;11.43;62.17;94409.16;1757899;80;20967;-52
2021/05/22 05:39:12;;;;;;;42.75;21.57;;;;;;;11.45;62.22;94416.35;1759423;80;21114;-52
2021/05/22 05:41:38;;;;;;;15.68;10.70;;;;;;;11.49;62.44;94420.34;1763067;80;20977;-51
2021/05/22 05:44:06;;;;;;;23.80;8.08;;;;;;;11.58;62.38;94423.88;1754754;80;21640;-52
2021/05/22 05:46:35;;;;;;;20.17;7.47;;;;;;;11.66;62.42;94418.19;1750857;80;20997;-54
2021/05/22 05:49:02;;;;;;;38.63;10.08;;;;;;;11.77;62.59;94410.22;1756257;80;20968;-51
2021/05/22 05:51:29;;;;;;;13.32;6.60;;;;;;;11.85;62.63;94418.31;1768102;80;21010;-52
2021/05/22 05:53:55;;;;;;;15.72;6.78;;;;;;;11.95;62.65;94406.05;1760702;80;21025;-50
2021/05/22 05:56:22;;;;;;;23.12;7.15;;;;;;;12.09;62.37;94413.64;1761143;80;21769;-54
2021/05/22 05:58:49;;;;;;;26.27;7.42;;;;;;;12.18;62.09;94416.38;1760988;80;20886;-51
2021/05/22 06:01:16;;;;;;;14.13;6.25;;;;;;;12.29;61.56;94413.87;1757275;80;20929;-51
2021/05/22 06:03:43;;;;;;;12.95;5.03;;;;;;;12.43;61.03;94411.83;1754105;80;21559;-52
2021/05/22 06:06:10;;;;;;;11.10;5.70;;;;;;;12.60;60.24;94407.45;1752537;80;21095;-52
2021/05/22 06:08:37;;;;;;;16.50;5.17;;;;;;;12.78;59.83;94412.88;1779215;80;21154;-51
2021/05/22 06:11:06;;;;;;;12.25;4.72;;;;;;;12.92;58.80;94406.66;1769989;80;21115;-53
2021/05/22 06:13:33;;;;;;;16.15;6.85;;;;;;;13.00;58.73;94392.67;1762408;79;21032;-51
2021/05/22 06:18:37;;;;;;;13.50;4.40;;;;;;;13.26;57.33;94387.56;1756730;80;21586;-50
2021/05/22 06:21:05;;;;;;;11.70;4.47;;;;;;;13.42;56.32;94390.52;1755767;80;21096;-52
2021/05/22 06:23:33;;;;;;;9.85;4.70;;;;;;;13.51;56.22;94386.28;1774240;80;21110;-52
2021/05/22 06:26:01;;;;;;;6.08;4.10;;;;;;;13.62;55.89;94385.86;1755349;80;21093;-52
2021/05/22 06:28:28;;;;;;;15.15;4.03;;;;;;;13.74;55.46;94377.15;1767301;80;21143;-50
2021/05/22 06:30:56;;;;;;;8.50;4.55;;;;;;;13.82;55.54;94372.78;1765346;80;20985;-50
2021/05/22 06:33:22;;;;;;;16.05;4.80;;;;;;;13.93;55.53;94370.19;1769353;80;21190;-50
2021/05/22 06:35:49;;;;;;;13.90;4.15;;;;;;;14.03;55.44;94373.02;1763618;80;21492;-51
2021/05/22 06:38:16;;;;;;;11.53;5.42;;;;;;;14.11;55.17;94379.06;1768712;80;21072;-52
2021/05/22 06:40:45;;;;;;;16.62;5.15;;;;;;;14.19;54.97;94376.70;1763436;80;21023;-50
2021/05/22 06:43:12;;;;;;;15.25;5.60;;;;;;;14.25;54.73;94368.64;1759225;81;21548;-50
2021/05/22 06:45:46;;;;;;;10.58;5.90;;;;;;;14.37;54.53;94372.34;1751523;80;21106;-50
2021/05/22 06:48:10;;;;;;;24.47;5.95;;;;;;;14.43;54.39;94371.92;1743165;80;21613;-51
2021/05/22 06:50:37;;;;;;;19.52;5.42;;;;;;;14.54;54.35;94370.72;1757322;80;21079;-49
2021/05/22 06:53:05;;;;;;;21.45;5.40;;;;;;;14.65;54.58;94368.09;1759166;80;21168;-51
2021/05/22 06:55:33;;;;;;;31.87;5.20;;;;;;;14.72;54.75;94366.33;1779185;80;21096;-51
2021/05/22 06:58:00;;;;;;;26.17;5.28;;;;;;;14.81;54.45;94367.56;1765205;80;21076;-51
2021/05/22 07:00:27;;;;;;;22.22;5.92;;;;;;;14.89;54.29;94374.84;1765671;80;20980;-51
2021/05/22 07:02:54;;;;;;;10.28;5.17;;;;;;;14.97;54.14;94373.95;1774978;80;21536;-53
2021/05/22 07:05:21;;;;;;;13.93;5.33;;;;;;;15.04;54.07;94374.91;1758507;80;21009;-52
2021/05/22 07:07:49;;;;;;;16.82;3.72;;;;;;;15.21;53.67;94373.75;1755892;80;21009;-51
2021/05/22 07:10:16;;;;;;;12.13;4.05;;;;;;;15.37;52.97;94371.84;1752525;80;20990;-51
2021/05/22 07:12:43;;;;;;;22.80;5.28;;;;;;;15.46;52.67;94369.68;1755928;80;21067;-53
2021/05/22 07:15:12;;;;;;;12.50;4.62;;;;;;;15.54;52.55;94382.50;1765242;80;20978;-51
2021/05/22 07:17:39;;;;;;;13.80;4.00;;;;;;;15.61;52.81;94372.35;1778746;80;20980;-49
2021/05/22 07:20:07;;;;;;;16.82;5.45;;;;;;;15.69;52.67;94356.18;1768405;80;21500;-51
2021/05/22 07:22:34;;;;;;;18.40;4.65;;;;;;;15.79;52.67;94354.00;1748654;80;21844;-51
2021/05/22 07:25:00;;;;;;;15.55;3.80;;;;;;;15.94;53.64;94348.47;1757917;80;21096;-51
2021/05/22 07:27:34;;;;;;;11.78;3.83;;;;;;;16.10;53.71;94350.63;1768888;80;21123;-50
2021/05/22 07:29:56;;;;;;;10.25;4.28;;;;;;;16.26;53.97;94346.48;1766283;80;20984;-50
2021/05/22 07:32:23;;;;;;;20.10;7.00;;;;;;;16.38;53.59;94350.27;1769560;80;20997;-50
2021/05/22 07:34:50;;;;;;;15.28;4.75;;;;;;;16.51;53.90;94349.98;1756799;80;21103;-50
2021/05/22 07:37:16;;;;;;;39.15;5.97;;;;;;;16.64;51.32;94341.22;1755537;80;21489;-50
2021/05/22 07:39:43;;;;;;;31.55;4.58;;;;;;;16.69;51.31;94343.29;1779193;80;21547;-51
2021/05/22 07:42:10;;;;;;;23.40;5.12;;;;;;;16.79;50.98;94351.54;1761422;80;21526;-52
2021/05/22 07:44:36;;;;;;;19.52;5.00;;;;;;;16.85;50.02;94350.32;1761149;80;21190;-53
2021/05/22 07:47:04;;;;;;;11.55;3.75;;;;;;;16.98;49.85;94346.48;1752926;80;21160;-50
2021/05/22 07:49:37;;;;;;;8.45;3.10;;;;;;;17.15;49.08;94347.33;1751321;80;21048;-52
2021/05/22 07:52:00;;;;;;;4.05;3.05;;;;;;;17.32;47.50;94343.95;1764924;80;21535;-51
2021/05/22 07:54:26;;;;;;;4.45;1.85;;;;;;;17.52;45.69;94347.23;1773298;80;21059;-51
2021/05/22 07:56:53;;;;;;;4.55;1.92;;;;;;;17.68;43.86;94337.52;1772132;80;21075;-51
2021/05/22 07:59:20;;;;;;;2.83;1.92;;;;;;;17.85;42.43;94334.14;1768792;80;21805;-50
2021/05/22 08:01:47;;;;;;;5.30;1.67;;;;;;;18.00;41.45;94336.71;1764806;80;20999;-51
2021/05/22 08:04:13;;;;;;;3.35;1.60;;;;;;;18.10;42.32;94327.61;1761260;80;21072;-51
2021/05/22 08:06:40;;;;;;;3.10;2.00;;;;;;;18.25;42.24;94335.83;1750213;80;20985;-50
2021/05/22 08:09:08;;;;;;;2.27;1.90;;;;;;;18.47;41.46;94334.45;1769236;80;21618;-51
2021/05/22 08:11:34;;;;;;;1.92;1.82;;;;;;;18.68;43.54;94330.77;1774912;80;21072;-51
2021/05/22 08:14:01;;;;;;;5.67;1.87;;;;;;;18.82;42.43;94326.30;1754455;80;21076;-52
2021/05/22 08:16:30;;;;;;;10.45;3.05;;;;;;;19.01;40.66;94319.55;1769035;80;20934;-50
2021/05/22 08:18:57;;;;;;;6.03;1.75;;;;;;;19.21;40.67;94318.59;1759636;80;21004;-51
2021/05/22 08:21:24;;;;;;;3.98;1.80;;;;;;;19.46;40.76;94309.13;1748542;80;20978;-51
2021/05/22 08:23:52;;;;;;;2.17;1.62;;;;;;;19.66;39.66;94312.95;1763923;80;21754;-54
2021/05/22 08:26:19;;;;;;;3.12;1.60;;;;;;;19.82;40.36;94302.32;1753602;80;21567;-52
2021/05/22 08:28:47;;;;;;;9.25;3.90;;;;;;;20.08;38.63;94299.87;1762708;80;21006;-51
2021/05/22 08:31:14;;;;;;;6.83;2.05;;;;;;;20.29;37.98;94296.78;1774287;80;21550;-53
2021/05/22 08:33:41;;;;;;;5.90;1.92;;;;;;;20.44;38.55;94310.52;1763830;80;21086;-55
2021/05/22 08:36:09;;;;;;;7.80;1.87;;;;;;;20.60;37.51;94306.05;1764253;80;21451;-54
2021/05/22 08:38:36;;;;;;;2.50;1.70;;;;;;;20.68;36.75;94303.55;1734315;80;21506;-53
2021/05/22 08:41:04;;;;;;;2.62;1.60;;;;;;;20.64;36.72;94295.33;1766759;80;21119;-52
2021/05/22 08:43:31;;;;;;;4.95;1.37;;;;;;;20.56;36.71;94302.13;1755985;80;21612;-51
2021/05/22 08:45:58;;;;;;;3.60;1.35;;;;;;;20.54;36.04;94301.16;1760893;80;20977;-53
2021/05/22 08:48:25;;;;;;;6.70;1.67;;;;;;;20.56;36.23;94302.78;1769652;80;21064;-54
2021/05/22 08:50:52;;;;;;;2.17;1.57;;;;;;;20.62;35.84;94309.07;1765161;80;21098;-53
2021/05/22 08:53:19;;;;;;;2.72;1.30;;;;;;;20.65;35.52;94311.59;1752356;80;20985;-52
2021/05/22 08:55:45;;;;;;;5.17;1.40;;;;;;;20.70;35.67;94303.04;1749635;80;21017;-51
2021/05/22 08:58:13;;;;;;;3.27;1.25;;;;;;;20.83;35.38;94303.14;1748841;80;21017;-53
2021/05/22 09:00:42;;;;;;;3.80;1.45;;;;;;;20.95;35.10;94300.39;1751322;80;21182;-52
2021/05/22 09:03:10;;;;;;;5.42;2.08;;;;;;;21.14;38.39;94293.53;1763691;80;21005;-52
2021/05/22 09:05:41;;;;;;;5.53;1.98;;;;;;;21.39;37.11;94295.66;1760581;80;20960;-51
2021/05/22 09:08:14;;;;;;;2.15;1.45;;;;;;;21.55;35.74;94290.50;1753836;80;21124;-53
2021/05/22 09:10:46;;;;;;;1.07;0.90;;;;;;;21.61;33.89;94293.34;1778266;80;21016;-53
2021/05/22 09:13:26;;;;;;;12.98;1.95;;;;;;;21.47;34.24;94288.20;1779194;80;21661;-51
2021/05/22 09:16:05;;;;;;;2.83;1.62;;;;;;;21.36;34.56;94283.50;1754713;80;21490;-52
2021/05/22 09:18:37;;;;;;;5.62;2.02;;;;;;;21.36;34.69;94284.13;1749838;80;21583;-52
2021/05/22 09:21:06;;;;;;;2.40;1.20;;;;;;;21.31;34.33;94287.76;1771640;80;21028;-50
2021/05/22 09:23:36;;;;;;;2.85;1.50;;;;;;;21.23;34.43;94282.00;1760735;80;21017;-52
2021/05/22 09:26:09;;;;;;;6.60;1.55;;;;;;;21.22;34.40;94279.09;1748187;80;21120;-50
2021/05/22 09:28:42;;;;;;;5.03;1.80;;;;;;;21.26;33.99;94284.39;1773093;80;20968;-52
2021/05/22 09:31:12;;;;;;;2.55;2.27;;;;;;;21.16;34.12;94279.80;1765174;80;21008;-49
2021/05/22 09:33:38;;;;;;;4.58;3.22;;;;;;;21.06;33.76;94270.88;1752222;80;21144;-51
2021/05/22 09:36:08;;;;;;;8.33;4.83;;;;;;;20.99;34.88;94272.88;1766950;80;21142;-53
2021/05/22 09:38:53;;;;;;;9.73;2.62;;;;;;;20.98;34.35;94261.57;1769883;80;21514;-53
2021/05/22 09:41:30;;;;;;;6.37;1.40;;;;;;;21.05;34.25;94255.38;1759376;80;21052;-53
2021/05/22 09:44:13;;;;;;;8.35;2.58;;;;;;;21.08;33.92;94258.55;1761172;80;20974;-54
2021/05/22 09:46:54;;;;;;;2.83;1.40;;;;;;;21.02;34.29;94264.83;1744130;80;27120;-52
2021/05/22 09:49:32;;;;;;;7.00;1.57;;;;;;;20.98;33.84;94258.77;1740363;81;25995;-53
2021/05/22 09:52:10;;;;;;;3.85;1.87;;;;;;;20.88;34.03;94259.77;1735868;82;21094;-51
2021/05/22 09:54:51;;;;;;;6.12;1.80;;;;;;;20.90;34.49;94251.61;1736217;81;21603;-52
2021/05/22 09:57:38;;;;;;;1.37;1.27;;;;;;;21.06;34.54;94256.26;1735922;82;21012;-54
2021/05/22 10:00:24;;;;;;;5.97;1.42;;;;;;;21.19;34.30;94246.57;1739084;81;21223;-53
2021/05/22 10:02:57;;;;;;;2.87;2.30;;;;;;;21.27;34.20;94250.93;1736728;81;21078;-57
2021/05/22 10:05:35;;;;;;;10.60;1.80;;;;;;;21.32;34.56;94233.30;1738280;81;21254;-53
2021/05/22 10:08:05;;;;;;;4.85;1.35;;;;;;;21.31;34.50;94240.19;1738897;80;21067;-54
2021/05/22 10:10:41;;;;;;;1.80;1.52;;;;;;;21.23;34.11;94233.66;1770255;80;21099;-52
2021/05/22 10:13:09;;;;;;;3.35;1.72;;;;;;;21.19;34.80;94220.62;1758898;80;21155;-53
2021/05/22 10:15:36;;;;;;;4.22;1.55;;;;;;;21.17;35.12;94220.39;1764508;80;21499;-54
2021/05/22 10:18:03;;;;;;;4.78;1.77;;;;;;;21.12;35.14;94218.43;1769493;80;21540;-53
2021/05/22 10:20:30;;;;;;;7.60;1.80;;;;;;;21.08;35.29;94213.78;1753351;80;20980;-51
2021/05/22 10:22:57;;;;;;;6.80;2.30;;;;;;;21.10;35.24;94205.62;1756149;80;21013;-52
2021/05/22 10:25:24;;;;;;;2.00;1.22;;;;;;;21.18;35.26;94209.31;1734994;80;21662;-52
2021/05/22 10:27:51;;;;;;;8.18;1.60;;;;;;;21.31;35.28;94212.20;1758751;80;21095;-52
2021/05/22 10:30:20;;;;;;;4.33;1.32;;;;;;;21.39;35.00;94205.47;1740600;80;21081;-53
2021/05/22 10:32:46;;;;;;;4.72;1.50;;;;;;;21.48;34.52;94210.67;1737049;82;21095;-52
2021/05/22 10:35:16;;;;;;;5.80;2.17;;;;;;;21.55;34.50;94206.51;1742978;82;21597;-52
2021/05/22 10:37:49;;;;;;;3.15;1.60;;;;;;;21.56;34.56;94196.82;1720507;82;21156;-52
2021/05/22 10:40:22;;;;;;;5.35;1.85;;;;;;;21.56;34.44;94201.02;1734095;81;21037;-52
2021/05/22 10:42:55;;;;;;;5.78;1.60;;;;;;;21.52;34.57;94192.18;1719845;82;21087;-53
2021/05/22 10:45:37;;;;;;;1.95;1.00;;;;;;;21.52;34.63;94187.98;1724678;81;21039;-54
2021/05/22 10:48:21;;;;;;;7.20;3.35;;;;;;;21.66;34.10;94199.39;1751110;82;21051;-53
2021/05/22 10:50:48;;;;;;;4.60;2.00;;;;;;;21.79;33.84;94193.82;1751295;82;20944;-52
2021/05/22 10:53:23;;;;;;;4.65;1.27;;;;;;;21.89;34.19;94187.31;1751788;82;21169;-53
2021/05/22 10:56:13;;;;;;;6.15;1.85;;;;;;;22.05;32.78;94180.02;1751505;82;21653;-53
2021/05/22 10:59:09;;;;;;;8.43;1.32;;;;;;;22.06;32.69;94191.34;1751588;80;21943;-53
2021/05/22 11:01:40;;;;;;;8.68;2.10;;;;;;;21.98;32.41;94184.75;1751706;82;20988;-50
2021/05/22 11:04:16;;;;;;;6.90;2.72;;;;;;;21.98;33.37;94177.09;1751727;82;20992;-51
2021/05/22 11:06:59;;;;;;;2.90;1.77;;;;;;;22.06;32.52;94182.94;1751577;82;21165;-53
2021/05/22 11:09:36;;;;;;;10.40;2.12;;;;;;;22.05;31.88;94180.02;1751739;82;21142;-54
2021/05/22 11:12:20;;;;;;;24.77;2.15;;;;;;;22.03;32.32;94195.11;1751584;82;21083;-51
2021/05/22 11:14:51;;;;;;;15.43;2.90;;;;;;;21.94;31.71;94189.89;1751625;82;21503;-49
2021/05/22 11:17:28;;;;;;;10.75;1.67;;;;;;;21.78;31.96;94183.91;1751729;82;21732;-52
2021/05/22 11:20:09;;;;;;;17.23;2.35;;;;;;;21.69;32.02;94187.12;1751729;82;20957;-52
2021/05/22 11:22:52;;;;;;;5.95;1.85;;;;;;;21.63;32.83;94190.66;1751772;82;21105;-57
2021/05/22 11:25:20;;;;;;;11.55;2.90;;;;;;;21.60;32.74;94183.27;1751256;81;21089;-52
2021/05/22 11:27:57;;;;;;;7.78;2.00;;;;;;;21.52;32.36;94177.55;1751722;82;21114;-51
2021/05/22 11:30:36;;;;;;;11.33;3.65;;;;;;;21.49;32.57;94194.64;1751486;81;20991;-54
2021/05/22 11:33:04;;;;;;;3.52;1.52;;;;;;;21.45;31.57;94187.20;1731336;82;21084;-51
2021/05/22 11:35:46;;;;;;;7.90;2.47;;;;;;;21.32;31.37;94169.67;1751641;82;21150;-51
2021/05/22 11:38:26;;;;;;;4.03;2.40;;;;;;;21.20;32.70;94177.36;1751644;82;21166;-52
2021/05/22 11:41:01;;;;;;;4.65;2.08;;;;;;;21.16;32.52;94163.70;1751798;82;20972;-52